Terminal Aerodrome Forecast
Issued by NWS Boston, MA

Home | Current Version | Previous Version | Text Only | Print | Product List | Glossary On
Versions: 1 2 3 4 5 6 7 8 9 10 11 12 13 14 15 16 17 18
000
FTUS41 KBOX 260531
TAFORH
TAF
KORH 260531Z 2606/2706 04009KT 3/4SM -SHRA BR OVC002 WS020/11035KT
     FM260800 06008KT 1/2SM -SHRA FG OVC002
     FM261800 07005KT 4SM BR VCSH OVC010
     FM262300 06005KT 3SM -DZ BR OVC003=

USA.gov is the U.S. government's official web portal to all federal, state and local government web resources and services.